createdAt,value
2017-11-04T00:01:34.907Z,92.23
2017-11-04T00:04:02.537Z,92.43
2017-11-04T00:06:30.106Z,92.52
2017-11-04T00:08:57.721Z,92.32
2017-11-04T00:11:25.324Z,92.53
2017-11-04T00:13:53.126Z,93.21
2017-11-04T00:16:20.715Z,93.48
2017-11-04T00:18:48.270Z,93.32
2017-11-04T00:21:15.876Z,93.46
2017-11-04T00:23:43.506Z,93.18
2017-11-04T00:26:11.093Z,92.75
2017-11-04T00:28:38.641Z,92.71
2017-11-04T00:31:06.313Z,92.43
2017-11-04T00:33:33.905Z,92.41
2017-11-04T00:36:01.510Z,92.67
2017-11-04T00:38:29.169Z,92.80
2017-11-04T00:40:56.717Z,92.89
2017-11-04T00:43:24.279Z,93.36
2017-11-04T00:45:51.860Z,93.47
2017-11-04T00:48:19.434Z,93.67
2017-11-04T00:50:47.032Z,93.60
2017-11-04T00:53:14.718Z,93.74
2017-11-04T00:55:42.297Z,93.87
2017-11-04T00:58:09.882Z,94.20
2017-11-04T01:00:37.505Z,93.74
2017-11-04T01:03:05.377Z,93.59
2017-11-04T01:05:32.934Z,93.48
2017-11-04T01:08:00.557Z,93.52
2017-11-04T01:10:28.190Z,93.67
2017-11-04T01:12:55.815Z,93.73
2017-11-04T01:15:23.395Z,94.04
2017-11-04T01:17:50.980Z,93.52
2017-11-04T01:20:18.576Z,93.20
2017-11-04T01:22:46.286Z,93.06
2017-11-04T01:25:13.877Z,93.45
2017-11-04T01:27:41.467Z,93.54
2017-11-04T01:30:09.198Z,93.61
2017-11-04T01:32:36.802Z,93.94
2017-11-04T01:35:04.399Z,93.71
2017-11-04T01:37:32.117Z,93.26
2017-11-04T01:39:59.687Z,93.10
2017-11-04T01:42:27.248Z,93.10
2017-11-04T01:44:54.849Z,92.92
2017-11-04T01:47:22.456Z,92.95
2017-11-04T01:49:50.049Z,93.28
2017-11-04T01:52:17.680Z,93.25
2017-11-04T01:54:45.294Z,93.34
2017-11-04T01:57:12.898Z,93.41
2017-11-04T01:59:40.484Z,93.89
2017-11-04T02:02:08.063Z,93.91
2017-11-04T02:04:35.647Z,93.52
2017-11-04T02:07:03.256Z,93.53
2017-11-04T02:09:30.853Z,93.85
2017-11-04T02:11:58.511Z,94.26
2017-11-04T02:14:26.088Z,94.43
2017-11-04T02:16:53.704Z,94.29
2017-11-04T02:19:21.299Z,94.24
2017-11-04T02:21:48.881Z,94.43
2017-11-04T02:24:16.500Z,94.57
2017-11-04T02:26:44.086Z,94.79
2017-11-04T02:29:12.258Z,94.39
2017-11-04T02:31:39.851Z,94.66
2017-11-04T02:34:07.472Z,93.99
2017-11-04T02:36:35.037Z,93.82
2017-11-04T02:39:02.661Z,94.10
2017-11-04T02:41:30.250Z,93.93
2017-11-04T02:43:57.817Z,94.11
2017-11-04T02:46:25.380Z,93.97
2017-11-04T02:48:52.964Z,93.74
2017-11-04T02:51:21.643Z,94.35
2017-11-04T02:53:49.315Z,94.76
2017-11-04T02:56:17.010Z,94.50
2017-11-04T02:58:44.585Z,94.28
2017-11-04T03:01:12.287Z,94.07
2017-11-04T03:03:42.255Z,94.11
2017-11-04T03:06:09.898Z,94.24
2017-11-04T03:08:37.501Z,94.36
2017-11-04T03:11:05.356Z,94.38
2017-11-04T03:13:33.355Z,94.59
2017-11-04T03:16:01.796Z,94.16
2017-11-04T03:18:29.384Z,93.83
2017-11-04T03:20:56.975Z,93.81
2017-11-04T03:23:24.739Z,93.83
2017-11-04T03:25:52.341Z,94.70
2017-11-04T03:28:19.919Z,94.43
2017-11-04T03:30:47.539Z,94.99
2017-11-04T03:33:15.126Z,94.84
2017-11-04T03:35:44.274Z,94.71
2017-11-04T03:38:11.879Z,94.48
2017-11-04T03:40:40.523Z,94.54
2017-11-04T03:43:10.385Z,94.65
2017-11-04T03:45:38.869Z,94.09
2017-11-04T03:48:06.423Z,93.50
2017-11-04T03:50:34.054Z,93.82
2017-11-04T03:53:01.889Z,94.05
2017-11-04T03:55:29.601Z,94.29
2017-11-04T03:57:58.245Z,94.04
2017-11-04T04:00:25.817Z,94.15
2017-11-04T04:02:53.389Z,94.13
2017-11-04T04:05:21.694Z,94.25
2017-11-04T04:07:49.499Z,94.27
2017-11-04T04:10:17.086Z,94.56
2017-11-04T04:12:44.693Z,94.77
2017-11-04T04:15:12.831Z,94.61
2017-11-04T04:17:40.381Z,94.58
2017-11-04T04:20:07.940Z,94.23
2017-11-04T04:22:35.529Z,94.39
2017-11-04T04:25:03.102Z,93.87
2017-11-04T04:27:31.676Z,94.12
2017-11-04T04:29:59.285Z,94.00
2017-11-04T04:32:26.859Z,94.14
2017-11-04T04:34:57.273Z,94.54
2017-11-04T04:37:24.870Z,94.58
2017-11-04T04:39:52.491Z,95.25
2017-11-04T04:42:20.077Z,94.88
2017-11-04T04:44:47.697Z,94.92
2017-11-04T04:47:15.307Z,94.87
2017-11-04T04:49:42.891Z,94.53
2017-11-04T04:52:10.519Z,94.35
2017-11-04T04:54:38.093Z,94.27
2017-11-04T04:57:05.761Z,94.23
2017-11-04T04:59:33.390Z,94.23
2017-11-04T05:02:00.952Z,94.49
2017-11-04T05:04:28.495Z,94.40
2017-11-04T05:06:56.103Z,94.13
2017-11-04T05:09:24.457Z,94.10
2017-11-04T05:11:52.424Z,94.18
2017-11-04T05:14:20.065Z,94.39
2017-11-04T05:16:47.649Z,94.44
2017-11-04T05:19:15.213Z,94.15
2017-11-04T05:21:42.846Z,94.14
2017-11-04T05:24:10.669Z,94.03
2017-11-04T05:26:38.266Z,93.97
2017-11-04T05:29:05.949Z,94.02
2017-11-04T05:31:35.188Z,94.51
2017-11-04T05:34:02.794Z,94.35
2017-11-04T05:36:30.386Z,94.31
2017-11-04T05:38:57.952Z,94.25
2017-11-04T05:41:25.561Z,94.06
2017-11-04T05:43:53.884Z,94.12
2017-11-04T05:46:22.442Z,94.01
2017-11-04T05:48:50.034Z,94.17
2017-11-04T05:51:17.603Z,94.15
2017-11-04T05:53:45.185Z,94.00
2017-11-04T05:56:12.899Z,94.18
2017-11-04T05:58:40.524Z,94.48
2017-11-04T06:01:08.150Z,94.64
2017-11-04T06:03:36.704Z,94.69
2017-11-04T06:06:04.328Z,94.34
2017-11-04T06:08:31.949Z,94.49
2017-11-04T06:10:59.539Z,94.78
2017-11-04T06:13:27.972Z,94.66
2017-11-04T06:15:55.547Z,93.95
2017-11-04T06:18:23.314Z,93.88
2017-11-04T06:20:51.172Z,93.98
2017-11-04T06:23:18.788Z,94.07
2017-11-04T06:25:46.358Z,94.36
2017-11-04T06:28:13.994Z,95.01
2017-11-04T06:30:41.585Z,94.92
2017-11-04T06:33:09.695Z,94.56
2017-11-04T06:35:37.535Z,94.31
2017-11-04T06:38:05.089Z,94.35
2017-11-04T06:40:32.669Z,94.71
2017-11-04T06:43:00.266Z,94.78
2017-11-04T06:45:27.853Z,94.54
2017-11-04T06:47:55.411Z,94.18
2017-11-04T06:50:22.996Z,94.04
2017-11-04T06:52:50.545Z,93.95
2017-11-04T06:55:18.102Z,94.14
2017-11-04T06:57:45.670Z,93.52
2017-11-04T07:00:13.241Z,93.51
2017-11-04T07:02:40.864Z,93.58
2017-11-04T07:05:08.575Z,93.66
2017-11-04T07:07:36.153Z,93.71
2017-11-04T07:10:06.816Z,93.79
2017-11-04T07:12:34.404Z,93.95
2017-11-04T07:15:03.049Z,93.46
2017-11-04T07:17:30.655Z,93.03
2017-11-04T07:19:59.353Z,92.72
2017-11-04T07:22:29.053Z,92.70
2017-11-04T07:24:56.730Z,92.36
2017-11-04T07:27:24.898Z,92.66
2017-11-04T07:29:54.054Z,92.57
2017-11-04T07:32:22.243Z,91.97
2017-11-04T07:34:49.905Z,91.59
2017-11-04T07:37:17.497Z,91.75
2017-11-04T07:39:45.103Z,91.79
2017-11-04T07:42:12.746Z,92.05
2017-11-04T07:44:42.000Z,91.39
2017-11-04T07:47:09.750Z,91.27
2017-11-04T07:49:37.319Z,92.09
2017-11-04T07:52:08.605Z,91.95
2017-11-04T07:54:37.875Z,90.84
2017-11-04T07:57:07.057Z,90.26
2017-11-04T07:59:34.660Z,91.02
2017-11-04T08:02:02.213Z,91.06
2017-11-04T08:04:29.802Z,88.93
2017-11-04T08:06:57.360Z,89.50
2017-11-04T08:09:25.816Z,88.28
2017-11-04T08:11:53.376Z,87.69
2017-11-04T08:14:21.127Z,87.28
2017-11-04T08:16:48.819Z,86.06
2017-11-04T08:19:17.333Z,85.00
2017-11-04T08:21:44.913Z,86.85
2017-11-04T08:24:12.466Z,85.39
2017-11-04T08:26:40.013Z,84.81
2017-11-04T08:29:07.646Z,84.96
2017-11-04T08:31:35.240Z,85.50
2017-11-04T08:34:02.821Z,84.56
2017-11-04T08:36:30.386Z,83.50
2017-11-04T08:38:57.960Z,83.34
2017-11-04T08:41:25.810Z,81.84
2017-11-04T08:43:53.594Z,82.58
2017-11-04T08:46:22.642Z,81.88
2017-11-04T08:48:50.229Z,82.62
2017-11-04T08:51:21.621Z,81.39
2017-11-04T08:53:49.246Z,80.53
2017-11-04T08:56:16.862Z,80.85
2017-11-04T08:58:44.421Z,82.04
2017-11-04T09:01:12.011Z,80.07
2017-11-04T09:03:39.572Z,78.79
2017-11-04T09:06:07.306Z,78.60
2017-11-04T09:08:34.877Z,79.98
2017-11-04T09:11:02.458Z,79.76
2017-11-04T09:13:30.064Z,80.80
2017-11-04T09:15:57.645Z,78.84
2017-11-04T09:18:25.692Z,79.31
2017-11-04T09:20:53.322Z,79.98
2017-11-04T09:23:20.921Z,79.13
2017-11-04T09:25:48.580Z,78.66
2017-11-04T09:28:16.274Z,77.25
2017-11-04T09:33:35.416Z,78.69
2017-11-04T09:36:02.997Z,78.84
2017-11-04T09:38:30.621Z,78.01
2017-11-04T09:40:58.230Z,77.65
2017-11-04T09:43:27.744Z,77.39
2017-11-04T09:45:55.314Z,77.65
2017-11-04T09:48:23.619Z,76.50
2017-11-04T09:50:51.197Z,77.05
2017-11-04T09:53:18.869Z,76.22
2017-11-04T09:55:46.803Z,75.95
2017-11-04T09:58:14.360Z,76.36
2017-11-04T10:00:41.956Z,77.38
2017-11-04T10:03:09.847Z,76.37
2017-11-04T10:05:38.598Z,75.19
2017-11-04T10:08:06.206Z,74.96
2017-11-04T10:10:33.791Z,74.33
2017-11-04T10:13:01.376Z,75.25
2017-11-04T10:15:29.012Z,73.08
2017-11-04T10:17:56.604Z,73.59
2017-11-04T10:20:24.188Z,73.54
2017-11-04T10:22:51.814Z,72.31
2017-11-04T10:25:19.714Z,71.75
2017-11-04T10:27:47.316Z,73.44
2017-11-04T10:30:14.911Z,73.32
2017-11-04T10:32:42.493Z,71.74
2017-11-04T10:35:10.460Z,70.41
2017-11-04T10:37:38.073Z,68.54
2017-11-04T10:40:05.629Z,68.31
2017-11-04T10:42:43.077Z,70.42
2017-11-04T10:45:11.044Z,66.93
2017-11-04T10:47:38.631Z,65.36
2017-11-04T10:50:06.239Z,64.21
2017-11-04T10:52:33.825Z,65.50
2017-11-04T10:55:01.421Z,64.86
2017-11-04T10:57:29.033Z,62.75
2017-11-04T10:59:57.031Z,62.86
2017-11-04T11:02:24.659Z,61.26
2017-11-04T11:04:52.313Z,62.58
2017-11-04T11:07:20.126Z,62.73
2017-11-04T11:09:47.829Z,62.17
2017-11-04T11:12:15.598Z,61.70
2017-11-04T11:14:45.860Z,62.71
2017-11-04T11:17:16.747Z,63.29
2017-11-04T11:19:45.249Z,61.21
2017-11-04T11:22:12.812Z,60.76
2017-11-04T11:24:40.383Z,63.03
2017-11-04T11:27:08.114Z,59.61
2017-11-04T11:29:35.740Z,59.22
2017-11-04T11:32:06.375Z,61.15
2017-11-04T11:34:33.983Z,59.92
2017-11-04T11:37:01.562Z,59.54
2017-11-04T11:39:29.810Z,58.34
2017-11-04T11:41:57.424Z,57.06
2017-11-04T11:44:25.066Z,57.75
2017-11-04T11:46:53.562Z,58.45
2017-11-04T11:49:21.493Z,57.94
2017-11-04T11:51:49.947Z,57.70
2017-11-04T11:54:17.594Z,58.60
2017-11-04T11:56:45.207Z,59.11
2017-11-04T11:59:14.352Z,59.20
2017-11-04T12:01:42.113Z,59.12
2017-11-04T12:04:09.878Z,58.64
2017-11-04T12:06:37.499Z,56.94
2017-11-04T12:09:05.451Z,57.35
2017-11-04T12:11:33.103Z,56.48
2017-11-04T12:14:00.675Z,54.34
2017-11-04T12:16:28.261Z,55.47
2017-11-04T12:18:55.881Z,54.45
2017-11-04T12:21:23.457Z,53.76
2017-11-04T12:23:51.061Z,53.62
2017-11-04T12:26:18.816Z,51.00
2017-11-04T12:28:46.389Z,51.29
2017-11-04T12:31:14.744Z,50.99
2017-11-04T12:33:42.583Z,49.42
2017-11-04T12:36:10.283Z,49.79
2017-11-04T12:38:37.868Z,50.31
2017-11-04T12:41:05.857Z,52.76
2017-11-04T12:43:38.545Z,51.42
2017-11-04T12:46:06.297Z,51.77
2017-11-04T12:48:33.851Z,52.53
2017-11-04T12:51:01.544Z,52.14
2017-11-04T12:53:29.152Z,51.83
2017-11-04T12:55:56.746Z,52.48
2017-11-04T12:58:24.327Z,52.21
2017-11-04T13:00:53.430Z,52.13
2017-11-04T13:03:21.372Z,52.81
2017-11-04T13:05:49.105Z,52.99
2017-11-04T13:08:16.809Z,54.17
2017-11-04T13:10:44.450Z,54.04
2017-11-04T13:13:12.569Z,54.33
2017-11-04T13:15:41.204Z,55.30
2017-11-04T13:18:08.761Z,55.39
2017-11-04T13:20:36.334Z,55.30
2017-11-04T13:23:04.051Z,56.08
2017-11-04T13:25:31.632Z,56.73
2017-11-04T13:27:59.219Z,55.59
2017-11-04T13:30:26.838Z,55.13
2017-11-04T13:32:54.452Z,55.55
2017-11-04T13:35:22.262Z,56.28
2017-11-04T13:37:49.848Z,55.59
2017-11-04T13:40:17.469Z,55.68
2017-11-04T13:42:45.030Z,54.99
2017-11-04T13:45:13.106Z,56.17
2017-11-04T13:47:40.786Z,58.71
2017-11-04T13:50:08.437Z,58.90
2017-11-04T13:52:36.023Z,59.35
2017-11-04T13:55:03.663Z,58.08
2017-11-04T13:57:31.316Z,58.92
2017-11-04T13:59:58.900Z,59.82
2017-11-04T14:02:27.568Z,59.65
2017-11-04T14:04:55.175Z,61.04
2017-11-04T14:07:23.172Z,61.02
2017-11-04T14:09:50.850Z,62.11
2017-11-04T14:12:18.520Z,62.08
2017-11-04T14:14:46.099Z,62.42
2017-11-04T14:17:14.052Z,62.40
2017-11-04T14:19:42.192Z,63.50
2017-11-04T14:22:09.951Z,63.72
2017-11-04T14:24:37.549Z,64.58
2017-11-04T14:27:05.625Z,65.01
2017-11-04T14:29:33.231Z,67.90
2017-11-04T14:32:00.849Z,68.31
2017-11-04T14:34:28.422Z,68.49
2017-11-04T14:36:56.063Z,68.74
2017-11-04T14:39:23.623Z,69.52
2017-11-04T14:41:51.210Z,70.06
2017-11-04T14:44:18.826Z,70.54
2017-11-04T14:46:46.396Z,71.28
2017-11-04T14:49:14.007Z,71.47
2017-11-04T14:51:41.587Z,72.07
2017-11-04T14:54:09.294Z,73.60
2017-11-04T14:56:36.863Z,74.68
2017-11-04T14:59:04.443Z,75.81
2017-11-04T15:01:33.855Z,76.68
2017-11-04T15:04:03.699Z,77.05
2017-11-04T15:06:31.323Z,77.67
2017-11-04T15:08:58.904Z,78.77
2017-11-04T15:11:26.457Z,78.67
2017-11-04T15:13:56.821Z,78.81
2017-11-04T15:16:24.986Z,80.08
2017-11-04T15:18:52.618Z,80.40
2017-11-04T15:21:20.187Z,80.11
2017-11-04T15:23:47.819Z,80.65
2017-11-04T15:26:15.379Z,80.29
2017-11-04T15:28:42.970Z,80.42
2017-11-04T15:31:10.878Z,81.06
2017-11-04T15:33:38.469Z,81.79
2017-11-04T15:36:06.753Z,82.21
2017-11-04T15:38:34.394Z,83.66
2017-11-04T15:41:02.233Z,83.92
2017-11-04T15:43:29.883Z,83.06
2017-11-04T15:45:57.564Z,83.03
2017-11-04T15:48:25.173Z,83.39
2017-11-04T15:50:52.750Z,83.68
2017-11-04T15:53:22.500Z,84.24
2017-11-04T15:55:50.133Z,84.81
2017-11-04T15:58:17.686Z,84.86
2017-11-04T16:00:45.279Z,85.11
2017-11-04T16:03:13.122Z,85.03
2017-11-04T16:05:40.676Z,86.23
2017-11-04T16:08:08.291Z,85.98
2017-11-04T16:10:35.854Z,85.91
2017-11-04T16:13:03.478Z,86.83
2017-11-04T16:15:31.094Z,86.61
2017-11-04T16:18:01.835Z,86.17
2017-11-04T16:20:30.587Z,86.28
2017-11-04T16:22:58.284Z,86.42
2017-11-04T16:25:25.888Z,85.91
2017-11-04T16:27:53.480Z,85.24
2017-11-04T16:30:21.098Z,85.00
2017-11-04T16:32:48.677Z,85.66
2017-11-04T16:35:16.273Z,85.45
2017-11-04T16:37:44.025Z,85.31
2017-11-04T16:40:11.670Z,85.85
2017-11-04T16:42:39.237Z,86.44
2017-11-04T16:45:07.047Z,86.20
2017-11-04T16:47:35.453Z,86.61
2017-11-04T16:50:03.033Z,86.20
2017-11-04T16:52:30.636Z,86.53
2017-11-04T16:55:09.536Z,86.62
2017-11-04T16:57:37.125Z,86.65
2017-11-04T17:00:05.234Z,86.61
2017-11-04T17:02:32.789Z,87.90
2017-11-04T17:05:00.345Z,87.69
2017-11-04T17:07:28.028Z,87.60
2017-11-04T17:10:10.722Z,87.49
2017-11-04T17:12:38.359Z,87.78
2017-11-04T17:15:06.013Z,88.08
2017-11-04T17:17:33.575Z,87.94
2017-11-04T17:20:01.165Z,87.64
2017-11-04T17:22:28.797Z,87.68
2017-11-04T17:24:56.478Z,88.07
2017-11-04T17:27:24.043Z,88.41
2017-11-04T17:29:51.646Z,88.40
2017-11-04T17:32:19.898Z,88.22
2017-11-04T17:34:47.478Z,88.56
2017-11-04T17:37:15.041Z,88.22
2017-11-04T17:39:42.666Z,87.71
2017-11-04T17:42:10.390Z,87.58
2017-11-04T17:44:37.969Z,87.40
2017-11-04T17:47:05.783Z,87.47
2017-11-04T17:49:44.213Z,87.95
2017-11-04T17:55:03.832Z,88.16
2017-11-04T17:57:31.856Z,88.74
2017-11-04T17:59:59.429Z,88.35
2017-11-04T18:02:27.063Z,88.51
2017-11-04T18:04:54.621Z,88.64
2017-11-04T18:07:22.313Z,88.55
2017-11-04T18:09:50.019Z,88.58
2017-11-04T18:12:17.680Z,88.50
2017-11-04T18:14:45.236Z,88.31
2017-11-04T18:17:12.928Z,88.83
2017-11-04T18:19:40.477Z,88.55
2017-11-04T18:22:08.155Z,88.22
2017-11-04T18:24:37.552Z,87.78
2017-11-04T18:27:05.727Z,87.86
2017-11-04T18:29:33.322Z,88.12
2017-11-04T18:32:00.914Z,87.71
2017-11-04T18:34:28.483Z,87.63
2017-11-04T18:36:56.078Z,87.84
2017-11-04T18:39:23.909Z,87.90
2017-11-04T18:41:51.496Z,88.47
2017-11-04T18:44:19.086Z,88.31
2017-11-04T18:46:46.698Z,88.22
2017-11-04T18:49:14.290Z,88.58
2017-11-04T18:51:41.874Z,88.47
2017-11-04T18:54:09.471Z,88.59
2017-11-04T18:56:37.075Z,88.95
2017-11-04T18:59:04.624Z,88.81
2017-11-04T19:01:32.213Z,88.92
2017-11-04T19:03:59.784Z,88.69
2017-11-04T19:06:27.354Z,88.40
2017-11-04T19:08:56.626Z,87.85
2017-11-04T19:11:24.950Z,87.49
2017-11-04T19:13:53.070Z,87.33
2017-11-04T19:16:20.694Z,87.40
2017-11-04T19:18:48.296Z,87.05
2017-11-04T19:21:16.604Z,86.89
2017-11-04T19:23:44.224Z,86.44
2017-11-04T19:26:11.779Z,86.43
2017-11-04T19:28:39.345Z,86.77
2017-11-04T19:31:08.882Z,86.96
2017-11-04T19:33:36.441Z,87.13
2017-11-04T19:36:04.221Z,87.35
2017-11-04T19:38:31.822Z,87.60
2017-11-04T19:40:59.424Z,87.91
2017-11-04T19:43:27.352Z,87.68
2017-11-04T19:45:55.094Z,87.64
2017-11-04T19:48:22.686Z,88.30
2017-11-04T19:50:50.261Z,88.91
2017-11-04T19:53:17.852Z,88.99
2017-11-04T19:55:45.409Z,88.99
2017-11-04T19:58:13.213Z,89.46
2017-11-04T20:03:31.940Z,89.33
2017-11-04T20:05:59.520Z,89.08
2017-11-04T20:08:27.129Z,89.34
2017-11-04T20:10:54.721Z,89.32
2017-11-04T20:13:22.383Z,89.28
2017-11-04T20:15:49.935Z,88.98
2017-11-04T20:18:17.522Z,88.98
2017-11-04T20:20:45.079Z,89.03
2017-11-04T20:23:12.817Z,88.69
2017-11-04T20:25:41.270Z,89.00
2017-11-04T20:28:08.870Z,88.79
2017-11-04T20:30:36.448Z,88.75
2017-11-04T20:33:04.078Z,88.33
2017-11-04T20:35:31.654Z,88.58
2017-11-04T20:37:59.240Z,88.64
2017-11-04T20:40:27.801Z,88.72
2017-11-04T20:42:55.578Z,88.97
2017-11-04T20:45:23.186Z,88.75
2017-11-04T20:47:50.773Z,88.99
2017-11-04T20:50:18.348Z,89.25
2017-11-04T20:52:45.921Z,89.15
2017-11-04T20:55:13.780Z,89.40
2017-11-04T20:57:41.387Z,89.45
2017-11-04T21:00:08.978Z,88.96
2017-11-04T21:02:36.635Z,88.87
2017-11-04T21:05:05.201Z,88.78
2017-11-04T21:07:32.799Z,89.00
2017-11-04T21:10:00.497Z,88.86
2017-11-04T21:12:28.090Z,88.89
2017-11-04T21:14:55.666Z,88.82
2017-11-04T21:17:23.275Z,89.12
2017-11-04T21:19:50.922Z,89.29
2017-11-04T21:22:18.611Z,89.44
2017-11-04T21:24:46.209Z,89.81
2017-11-04T21:27:13.956Z,89.81
2017-11-04T21:29:41.536Z,89.97
2017-11-04T21:32:09.118Z,89.94
2017-11-04T21:34:36.724Z,89.85
2017-11-04T21:37:04.407Z,89.67
2017-11-04T21:39:32.010Z,90.24
2017-11-04T21:41:59.600Z,89.87
2017-11-04T21:44:27.206Z,89.71
2017-11-04T21:46:54.781Z,90.23
2017-11-04T21:49:22.625Z,90.09
2017-11-04T21:51:50.214Z,89.94
2017-11-04T21:54:18.032Z,89.82
2017-11-04T21:56:45.610Z,89.86
2017-11-04T21:59:13.223Z,89.95
2017-11-04T22:01:40.804Z,90.09
2017-11-04T22:04:08.614Z,90.64
2017-11-04T22:06:36.205Z,90.60
2017-11-04T22:09:03.997Z,90.62
2017-11-04T22:11:31.712Z,90.75
2017-11-04T22:13:59.298Z,90.26
2017-11-04T22:16:26.863Z,90.10
2017-11-04T22:18:54.460Z,90.06
2017-11-04T22:21:22.048Z,90.11
2017-11-04T22:23:49.782Z,90.22
2017-11-04T22:26:17.463Z,90.37
2017-11-04T22:28:45.100Z,90.62
2017-11-04T22:31:12.711Z,90.13
2017-11-04T22:33:50.306Z,90.04
2017-11-04T22:36:17.882Z,89.89
2017-11-04T22:38:45.694Z,89.73
2017-11-04T22:41:13.300Z,88.94
2017-11-04T22:43:40.918Z,88.56
2017-11-04T22:46:08.548Z,88.44
2017-11-04T22:48:36.307Z,88.38
2017-11-04T22:51:04.043Z,88.16
2017-11-04T22:53:31.597Z,87.78
2017-11-04T22:55:59.217Z,87.93
2017-11-04T22:58:26.765Z,87.90
2017-11-04T23:00:54.435Z,88.01
2017-11-04T23:03:22.040Z,87.85
2017-11-04T23:05:49.631Z,87.30
2017-11-04T23:08:19.111Z,87.47
2017-11-04T23:10:50.566Z,87.96
2017-11-04T23:13:18.208Z,88.62
2017-11-04T23:15:45.816Z,89.11
2017-11-04T23:18:19.871Z,89.18
2017-11-04T23:20:49.001Z,89.06
2017-11-04T23:23:16.563Z,88.96
2017-11-04T23:25:44.160Z,88.65
2017-11-04T23:28:11.798Z,88.86
2017-11-04T23:30:39.425Z,88.85
2017-11-04T23:33:07.110Z,89.30
2017-11-04T23:35:34.804Z,89.56
2017-11-04T23:38:02.406Z,90.54
2017-11-04T23:40:30.047Z,90.30
2017-11-04T23:42:57.836Z,90.23
2017-11-04T23:45:25.421Z,90.70
2017-11-04T23:47:52.999Z,90.61
2017-11-04T23:50:20.652Z,90.50
2017-11-04T23:52:48.238Z,90.29
2017-11-04T23:55:16.274Z,90.28
2017-11-04T23:57:43.865Z,90.67
